Forside
METAR-TAF:

METAR-TAF

Lufthavne :

Hawarden, Wales

Breddekreds: 53-10N, længdekreds: 002-59W, højde: 10 m

Aktuelle vejr

Denne rapport blev lavet for 19 minutter siden, kl. 12:20 UTC
Vind 6 kt fra nordøst
Temperatur 8°C
Fugtighed 61%
Tryk 1035 hPa
Sigt 10 km eller mere
Spredte skyer i en højde af 1800 ft
Brudte skyer i en højde af 3000 ft

METAR: EGNR 311220Z 05006KT 9999 SCT018 BKN030 08/01 Q1035

Tid: 13:39 (12:39 UTC)

Vejrudsigter

Denne rapport blev lavet for 1 time og 38 minutter siden, kl. 11:01 UTC
Foreløbig gælder fra 31 på 12 UTC til 31 på 20 UTC
Vind 8 kt fra nordnordøst
Sigt 10 km eller mere
Spredte skyer i en højde af 2500 ft
Brudte skyer i en højde af 3000 ft

TAF: EGNR 311101Z 3112/3120 03008KT 9999 SCT025 BKN030

Vejrobservationer og prognoser fra mere end 4000 lufthavne (METAR og TAF).

De gule og røde prikker repræsenterer de meteorologiske stationer.

Flyt musen over at se navnet på stationen.

Så klik over at se vejr observationer og prognoser.

At skifte det kort: Klik på de grønne knapper med et sort kors for at zoome ind; på den grønne knap med en bindestreg for at zoome ud; eller på de grønne pile for tilstødende kort.


METAR-TAF: